Strona główna
METAR-TAF:

METAR-TAF

Lotnisko :

Frederick Municipal Airport

Frederick, Maryland, Stany Zjednoczone

Szerokość geograficzna: 39-25-03N, Długość geograficzna: 077-22-28W, wysokość: 92 m

Aktualna obserwacja pogody

Raport powstał 21 minut temu, godzina 05:00 UTC
Wiatr 7 kt od północno-północny zachód
Temperatura 5°C
Wilgotność 60%
Ciśnienie 1024 hPa
Widzialność: 16.1 km
Rozproszone chmury na wysokości 6000 ft
słaby śnieg

METAR: KFDK 070500Z AUTO 33007KT 10SM -SN SCT060 05/M02 A3023 RMK AO2

czas: 00:21 (05:21 UTC)


TAF: brakujący

Obserwacja i prognoza pogody dla ponad 4000 lotnisk (raport METAR i TAF).

Dostępne stacje oznaczono żółtymi i czerwonymi punktami na mapie.

Najedź kursorem aby zobaczyć nazwę stacji.

Kliknij aby zobaczyć obserwacje i prognozy pogody.

Aby zmienić mapę: kliknij na zielony przycisk z czarnym krzyżykiem, aby powiększyć; na zielony przycisk z myślnikiem, aby pomniejszyć; na zielone strzałki, aby przejść do map sąsiednich.


METAR-TAF: